sensor_id;sensor_type;location;lat;lon;timestamp;temperature;humidity
71128;SHT30;59249;59.736;30.568;2023-07-13T00:01:40;16.47;75.49
71128;SHT30;59249;59.736;30.568;2023-07-13T00:04:10;16.47;75.49
71128;SHT30;59249;59.736;30.568;2023-07-13T00:06:39;16.42;75.60
71128;SHT30;59249;59.736;30.568;2023-07-13T00:09:16;16.43;75.25
71128;SHT30;59249;59.736;30.568;2023-07-13T00:11:45;16.47;75.43
71128;SHT30;59249;59.736;30.568;2023-07-13T00:14:16;16.44;75.43
71128;SHT30;59249;59.736;30.568;2023-07-13T00:16:46;16.48;75.49
71128;SHT30;59249;59.736;30.568;2023-07-13T00:19:15;16.45;75.49
71128;SHT30;59249;59.736;30.568;2023-07-13T00:21:44;16.44;75.49
71128;SHT30;59249;59.736;30.568;2023-07-13T00:24:15;16.44;75.68
71128;SHT30;59249;59.736;30.568;2023-07-13T00:26:52;16.49;75.48
71128;SHT30;59249;59.736;30.568;2023-07-13T00:29:22;16.47;75.33
71128;SHT30;59249;59.736;30.568;2023-07-13T00:31:51;16.56;75.21
71128;SHT30;59249;59.736;30.568;2023-07-13T00:34:22;16.59;75.28
71128;SHT30;59249;59.736;30.568;2023-07-13T00:36:51;16.58;75.43
71128;SHT30;59249;59.736;30.568;2023-07-13T00:39:19;16.48;75.62
71128;SHT30;59249;59.736;30.568;2023-07-13T00:41:53;16.55;75.65
71128;SHT30;59249;59.736;30.568;2023-07-13T00:44:23;16.53;75.80
71128;SHT30;59249;59.736;30.568;2023-07-13T00:46:52;16.52;75.91
71128;SHT30;59249;59.736;30.568;2023-07-13T00:49:22;16.51;75.89
71128;SHT30;59249;59.736;30.568;2023-07-13T00:51:57;16.48;76.18
71128;SHT30;59249;59.736;30.568;2023-07-13T00:54:33;16.46;76.23
71128;SHT30;59249;59.736;30.568;2023-07-13T00:57:07;16.43;76.16
71128;SHT30;59249;59.736;30.568;2023-07-13T00:59:52;16.45;76.17
71128;SHT30;59249;59.736;30.568;2023-07-13T01:02:22;16.44;76.30
71128;SHT30;59249;59.736;30.568;2023-07-13T01:04:51;16.47;76.04
71128;SHT30;59249;59.736;30.568;2023-07-13T01:07:20;16.49;76.00
71128;SHT30;59249;59.736;30.568;2023-07-13T01:09:49;16.44;76.52
71128;SHT30;59249;59.736;30.568;2023-07-13T01:12:19;16.49;76.39
71128;SHT30;59249;59.736;30.568;2023-07-13T01:14:57;16.43;76.56
71128;SHT30;59249;59.736;30.568;2023-07-13T01:17:27;16.45;76.51
71128;SHT30;59249;59.736;30.568;2023-07-13T01:19:57;16.43;76.69
71128;SHT30;59249;59.736;30.568;2023-07-13T01:22:27;16.50;76.57
71128;SHT30;59249;59.736;30.568;2023-07-13T01:24:57;16.55;76.55
71128;SHT30;59249;59.736;30.568;2023-07-13T01:27:26;16.59;76.56
71128;SHT30;59249;59.736;30.568;2023-07-13T01:29:55;16.63;76.50
71128;SHT30;59249;59.736;30.568;2023-07-13T01:32:32;16.65;76.69
71128;SHT30;59249;59.736;30.568;2023-07-13T01:35:01;16.60;76.75
71128;SHT30;59249;59.736;30.568;2023-07-13T01:37:31;16.60;76.70
71128;SHT30;59249;59.736;30.568;2023-07-13T01:40:05;16.46;77.07
71128;SHT30;59249;59.736;30.568;2023-07-13T01:42:37;16.54;76.97
71128;SHT30;59249;59.736;30.568;2023-07-13T01:45:07;16.61;76.90
71128;SHT30;59249;59.736;30.568;2023-07-13T01:47:36;16.51;77.12
71128;SHT30;59249;59.736;30.568;2023-07-13T01:50:07;16.56;77.20
71128;SHT30;59249;59.736;30.568;2023-07-13T01:52:37;16.51;77.25
71128;SHT30;59249;59.736;30.568;2023-07-13T01:55:07;16.56;77.31
71128;SHT30;59249;59.736;30.568;2023-07-13T01:57:36;16.51;77.39
71128;SHT30;59249;59.736;30.568;2023-07-13T02:00:08;16.68;77.03
71128;SHT30;59249;59.736;30.568;2023-07-13T02:02:43;16.67;77.04
71128;SHT30;59249;59.736;30.568;2023-07-13T02:05:14;16.81;76.87
71128;SHT30;59249;59.736;30.568;2023-07-13T02:07:44;16.78;77.02
71128;SHT30;59249;59.736;30.568;2023-07-13T02:10:15;16.88;76.87
71128;SHT30;59249;59.736;30.568;2023-07-13T02:12:45;16.95;76.93
71128;SHT30;59249;59.736;30.568;2023-07-13T02:15:14;16.95;76.82
71128;SHT30;59249;59.736;30.568;2023-07-13T02:17:46;16.99;76.76
71128;SHT30;59249;59.736;30.568;2023-07-13T02:20:35;17.04;76.63
71128;SHT30;59249;59.736;30.568;2023-07-13T02:23:05;17.04;76.57
71128;SHT30;59249;59.736;30.568;2023-07-13T02:25:36;17.05;76.87
71128;SHT30;59249;59.736;30.568;2023-07-13T02:28:05;17.13;76.59
71128;SHT30;59249;59.736;30.568;2023-07-13T02:30:34;17.15;76.62
71128;SHT30;59249;59.736;30.568;2023-07-13T02:33:03;17.19;76.50
71128;SHT30;59249;59.736;30.568;2023-07-13T02:35:32;17.23;76.47
71128;SHT30;59249;59.736;30.568;2023-07-13T02:38:01;17.25;76.42
71128;SHT30;59249;59.736;30.568;2023-07-13T02:40:32;17.31;76.23
71128;SHT30;59249;59.736;30.568;2023-07-13T02:43:02;17.32;76.25
71128;SHT30;59249;59.736;30.568;2023-07-13T02:45:31;17.35;76.25
71128;SHT30;59249;59.736;30.568;2023-07-13T02:48:00;17.33;76.18
71128;SHT30;59249;59.736;30.568;2023-07-13T02:50:30;17.40;76.19
71128;SHT30;59249;59.736;30.568;2023-07-13T02:52:58;17.42;76.05
71128;SHT30;59249;59.736;30.568;2023-07-13T02:55:27;17.44;76.02
71128;SHT30;59249;59.736;30.568;2023-07-13T02:57:57;17.31;76.23
71128;SHT30;59249;59.736;30.568;2023-07-13T03:00:26;17.23;76.38
71128;SHT30;59249;59.736;30.568;2023-07-13T03:02:56;17.26;76.24
71128;SHT30;59249;59.736;30.568;2023-07-13T03:05:26;17.37;75.95
71128;SHT30;59249;59.736;30.568;2023-07-13T03:07:55;17.42;75.98
71128;SHT30;59249;59.736;30.568;2023-07-13T03:10:25;17.33;76.19
71128;SHT30;59249;59.736;30.568;2023-07-13T03:12:54;17.42;76.01
71128;SHT30;59249;59.736;30.568;2023-07-13T03:15:27;17.44;76.06
71128;SHT30;59249;59.736;30.568;2023-07-13T03:17:58;17.50;76.06
71128;SHT30;59249;59.736;30.568;2023-07-13T03:20:27;17.54;75.89
71128;SHT30;59249;59.736;30.568;2023-07-13T03:22:56;17.57;75.96
71128;SHT30;59249;59.736;30.568;2023-07-13T03:25:27;17.61;76.09
71128;SHT30;59249;59.736;30.568;2023-07-13T03:27:55;17.67;75.67
71128;SHT30;59249;59.736;30.568;2023-07-13T03:30:24;17.69;73.97
71128;SHT30;59249;59.736;30.568;2023-07-13T03:32:55;17.82;72.47
71128;SHT30;59249;59.736;30.568;2023-07-13T03:35:25;17.82;70.87
71128;SHT30;59249;59.736;30.568;2023-07-13T03:37:54;17.82;70.34
71128;SHT30;59249;59.736;30.568;2023-07-13T03:40:23;17.86;69.18
71128;SHT30;59249;59.736;30.568;2023-07-13T03:42:53;17.91;67.83
71128;SHT30;59249;59.736;30.568;2023-07-13T03:45:22;17.86;66.51
71128;SHT30;59249;59.736;30.568;2023-07-13T03:47:51;17.81;62.80
71128;SHT30;59249;59.736;30.568;2023-07-13T03:50:22;17.96;62.35
71128;SHT30;59249;59.736;30.568;2023-07-13T03:52:51;17.98;62.63
71128;SHT30;59249;59.736;30.568;2023-07-13T03:55:19;17.96;62.57
71128;SHT30;59249;59.736;30.568;2023-07-13T03:57:58;18.06;62.48
71128;SHT30;59249;59.736;30.568;2023-07-13T04:00:27;18.16;62.48
71128;SHT30;59249;59.736;30.568;2023-07-13T04:02:55;18.31;62.78
71128;SHT30;59249;59.736;30.568;2023-07-13T04:05:26;18.29;62.14
71128;SHT30;59249;59.736;30.568;2023-07-13T04:07:55;18.39;61.90
71128;SHT30;59249;59.736;30.568;2023-07-13T04:10:25;18.59;61.35
71128;SHT30;59249;59.736;30.568;2023-07-13T04:12:54;18.63;59.61
71128;SHT30;59249;59.736;30.568;2023-07-13T04:15:22;18.70;59.95
71128;SHT30;59249;59.736;30.568;2023-07-13T04:17:51;18.71;59.64
71128;SHT30;59249;59.736;30.568;2023-07-13T04:20:20;18.75;60.17
71128;SHT30;59249;59.736;30.568;2023-07-13T04:22:50;18.85;60.03
71128;SHT30;59249;59.736;30.568;2023-07-13T04:25:21;19.07;60.17
71128;SHT30;59249;59.736;30.568;2023-07-13T04:27:50;19.31;60.12
71128;SHT30;59249;59.736;30.568;2023-07-13T04:30:19;19.61;59.11
71128;SHT30;59249;59.736;30.568;2023-07-13T04:32:51;19.84;57.68
71128;SHT30;59249;59.736;30.568;2023-07-13T04:35:20;20.03;56.54
71128;SHT30;59249;59.736;30.568;2023-07-13T04:37:50;20.10;55.99
71128;SHT30;59249;59.736;30.568;2023-07-13T04:40:20;20.19;55.08
71128;SHT30;59249;59.736;30.568;2023-07-13T04:42:49;20.17;55.62
71128;SHT30;59249;59.736;30.568;2023-07-13T04:45:18;20.29;56.43
71128;SHT30;59249;59.736;30.568;2023-07-13T04:47:47;20.41;57.04
71128;SHT30;59249;59.736;30.568;2023-07-13T04:50:16;20.59;56.40
71128;SHT30;59249;59.736;30.568;2023-07-13T04:52:50;20.68;56.30
71128;SHT30;59249;59.736;30.568;2023-07-13T04:55:20;20.89;55.35
71128;SHT30;59249;59.736;30.568;2023-07-13T04:57:49;21.02;53.58
71128;SHT30;59249;59.736;30.568;2023-07-13T05:00:18;20.89;53.77
71128;SHT30;59249;59.736;30.568;2023-07-13T05:02:47;20.86;53.10
71128;SHT30;59249;59.736;30.568;2023-07-13T05:05:16;20.65;53.96
71128;SHT30;59249;59.736;30.568;2023-07-13T05:07:44;20.60;54.19
71128;SHT30;59249;59.736;30.568;2023-07-13T05:10:17;20.74;53.93
71128;SHT30;59249;59.736;30.568;2023-07-13T05:12:46;20.65;54.44
71128;SHT30;59249;59.736;30.568;2023-07-13T05:15:16;20.69;54.78
71128;SHT30;59249;59.736;30.568;2023-07-13T05:17:48;20.76;54.46
71128;SHT30;59249;59.736;30.568;2023-07-13T05:20:18;20.86;54.57
71128;SHT30;59249;59.736;30.568;2023-07-13T05:22:47;21.06;53.58
71128;SHT30;59249;59.736;30.568;2023-07-13T05:25:18;21.21;52.95
71128;SHT30;59249;59.736;30.568;2023-07-13T05:27:46;21.27;51.77
71128;SHT30;59249;59.736;30.568;2023-07-13T05:30:16;21.22;51.38
71128;SHT30;59249;59.736;30.568;2023-07-13T05:32:44;21.41;51.22
71128;SHT30;59249;59.736;30.568;2023-07-13T05:35:39;21.31;50.95
71128;SHT30;59249;59.736;30.568;2023-07-13T05:38:08;21.57;50.41
71128;SHT30;59249;59.736;30.568;2023-07-13T05:40:38;21.53;49.62
71128;SHT30;59249;59.736;30.568;2023-07-13T05:43:07;21.45;50.09
71128;SHT30;59249;59.736;30.568;2023-07-13T05:45:36;21.47;50.01
71128;SHT30;59249;59.736;30.568;2023-07-13T05:48:05;21.56;49.78
71128;SHT30;59249;59.736;30.568;2023-07-13T05:50:34;21.59;49.83
71128;SHT30;59249;59.736;30.568;2023-07-13T05:53:05;21.71;49.80
71128;SHT30;59249;59.736;30.568;2023-07-13T05:55:34;21.66;49.70
71128;SHT30;59249;59.736;30.568;2023-07-13T05:58:04;21.50;50.24
71128;SHT30;59249;59.736;30.568;2023-07-13T06:00:33;21.59;50.19
71128;SHT30;59249;59.736;30.568;2023-07-13T06:03:02;21.85;50.42
71128;SHT30;59249;59.736;30.568;2023-07-13T06:05:33;21.93;49.94
71128;SHT30;59249;59.736;30.568;2023-07-13T06:08:03;22.02;49.37
71128;SHT30;59249;59.736;30.568;2023-07-13T06:10:33;21.94;49.52
71128;SHT30;59249;59.736;30.568;2023-07-13T06:13:03;22.13;49.47
71128;SHT30;59249;59.736;30.568;2023-07-13T06:15:32;22.26;49.66
71128;SHT30;59249;59.736;30.568;2023-07-13T06:18:01;22.39;49.23
71128;SHT30;59249;59.736;30.568;2023-07-13T06:20:30;22.44;49.48
71128;SHT30;59249;59.736;30.568;2023-07-13T06:23:02;22.57;49.52
71128;SHT30;59249;59.736;30.568;2023-07-13T06:25:31;22.49;48.95
71128;SHT30;59249;59.736;30.568;2023-07-13T06:28:04;22.53;48.55
71128;SHT30;59249;59.736;30.568;2023-07-13T06:30:33;22.50;48.65
71128;SHT30;59249;59.736;30.568;2023-07-13T06:33:01;22.24;48.86
71128;SHT30;59249;59.736;30.568;2023-07-13T06:35:30;22.27;48.58
71128;SHT30;59249;59.736;30.568;2023-07-13T06:38:00;22.50;48.51
71128;SHT30;59249;59.736;30.568;2023-07-13T06:40:29;22.63;48.71
71128;SHT30;59249;59.736;30.568;2023-07-13T06:42:58;22.75;48.64
71128;SHT30;59249;59.736;30.568;2023-07-13T06:45:34;22.81;48.70
71128;SHT30;59249;59.736;30.568;2023-07-13T06:48:04;22.52;48.35
71128;SHT30;59249;59.736;30.568;2023-07-13T06:50:33;22.33;48.88
71128;SHT30;59249;59.736;30.568;2023-07-13T06:53:02;22.63;48.74
71128;SHT30;59249;59.736;30.568;2023-07-13T06:55:31;22.72;48.88
71128;SHT30;59249;59.736;30.568;2023-07-13T06:58:00;22.80;48.66
71128;SHT30;59249;59.736;30.568;2023-07-13T07:00:33;22.96;48.29
71128;SHT30;59249;59.736;30.568;2023-07-13T07:03:02;22.92;48.21
71128;SHT30;59249;59.736;30.568;2023-07-13T07:05:31;22.75;48.21
71128;SHT30;59249;59.736;30.568;2023-07-13T07:08:01;23.00;47.88
71128;SHT30;59249;59.736;30.568;2023-07-13T07:10:32;23.00;47.55
71128;SHT30;59249;59.736;30.568;2023-07-13T07:13:02;23.05;47.51
71128;SHT30;59249;59.736;30.568;2023-07-13T07:15:34;23.20;47.75
71128;SHT30;59249;59.736;30.568;2023-07-13T07:18:05;23.22;48.15
71128;SHT30;59249;59.736;30.568;2023-07-13T07:20:36;23.18;48.39
71128;SHT30;59249;59.736;30.568;2023-07-13T07:23:05;23.09;48.48
71128;SHT30;59249;59.736;30.568;2023-07-13T07:25:33;22.99;48.77
71128;SHT30;59249;59.736;30.568;2023-07-13T07:28:04;23.01;48.27
71128;SHT30;59249;59.736;30.568;2023-07-13T07:30:42;22.75;48.29
71128;SHT30;59249;59.736;30.568;2023-07-13T07:33:14;22.73;48.48
71128;SHT30;59249;59.736;30.568;2023-07-13T07:35:44;22.71;48.89
71128;SHT30;59249;59.736;30.568;2023-07-13T07:38:33;22.49;50.38
71128;SHT30;59249;59.736;30.568;2023-07-13T07:41:03;22.73;49.81
71128;SHT30;59249;59.736;30.568;2023-07-13T07:43:36;22.90;50.24
71128;SHT30;59249;59.736;30.568;2023-07-13T07:46:06;22.80;50.35
71128;SHT30;59249;59.736;30.568;2023-07-13T07:48:36;23.06;50.32
71128;SHT30;59249;59.736;30.568;2023-07-13T07:51:04;23.14;51.02
71128;SHT30;59249;59.736;30.568;2023-07-13T07:53:33;23.09;51.39
71128;SHT30;59249;59.736;30.568;2023-07-13T07:56:02;23.09;51.61
71128;SHT30;59249;59.736;30.568;2023-07-13T07:58:51;23.21;51.53
71128;SHT30;59249;59.736;30.568;2023-07-13T08:01:26;23.09;52.08
71128;SHT30;59249;59.736;30.568;2023-07-13T08:03:58;23.12;51.76
71128;SHT30;59249;59.736;30.568;2023-07-13T08:06:33;22.59;51.88
71128;SHT30;59249;59.736;30.568;2023-07-13T08:09:04;22.96;51.53
71128;SHT30;59249;59.736;30.568;2023-07-13T08:11:36;23.03;50.82
71128;SHT30;59249;59.736;30.568;2023-07-13T08:14:08;22.87;50.18
71128;SHT30;59249;59.736;30.568;2023-07-13T08:16:39;22.85;49.88
71128;SHT30;59249;59.736;30.568;2023-07-13T08:19:08;23.22;49.53
71128;SHT30;59249;59.736;30.568;2023-07-13T08:21:36;23.43;48.83
71128;SHT30;59249;59.736;30.568;2023-07-13T08:24:07;23.12;47.87
71128;SHT30;59249;59.736;30.568;2023-07-13T08:26:36;23.42;47.25
71128;SHT30;59249;59.736;30.568;2023-07-13T08:29:05;23.31;47.65
71128;SHT30;59249;59.736;30.568;2023-07-13T08:31:33;23.18;48.44
71128;SHT30;59249;59.736;30.568;2023-07-13T08:34:07;23.02;48.53
71128;SHT30;59249;59.736;30.568;2023-07-13T08:36:36;22.93;48.22
71128;SHT30;59249;59.736;30.568;2023-07-13T08:39:05;23.10;48.32
71128;SHT30;59249;59.736;30.568;2023-07-13T08:41:36;22.73;48.91
71128;SHT30;59249;59.736;30.568;2023-07-13T08:44:18;22.78;48.94
71128;SHT30;59249;59.736;30.568;2023-07-13T08:46:51;22.80;48.95
71128;SHT30;59249;59.736;30.568;2023-07-13T08:49:24;22.24;49.22
71128;SHT30;59249;59.736;30.568;2023-07-13T08:52:03;22.20;49.08
71128;SHT30;59249;59.736;30.568;2023-07-13T08:54:38;22.31;48.94
71128;SHT30;59249;59.736;30.568;2023-07-13T08:57:13;22.50;48.84
71128;SHT30;59249;59.736;30.568;2023-07-13T08:59:44;22.53;48.81
71128;SHT30;59249;59.736;30.568;2023-07-13T09:02:26;22.46;48.32
71128;SHT30;59249;59.736;30.568;2023-07-13T09:05:03;22.66;48.12
71128;SHT30;59249;59.736;30.568;2023-07-13T09:07:50;22.61;48.10
71128;SHT30;59249;59.736;30.568;2023-07-13T09:10:28;22.43;48.41
71128;SHT30;59249;59.736;30.568;2023-07-13T09:13:15;22.36;48.83
71128;SHT30;59249;59.736;30.568;2023-07-13T09:15:49;22.05;48.78
71128;SHT30;59249;59.736;30.568;2023-07-13T09:18:27;22.38;48.98
71128;SHT30;59249;59.736;30.568;2023-07-13T09:21:04;22.04;48.94
71128;SHT30;59249;59.736;30.568;2023-07-13T09:23:36;22.15;49.16
71128;SHT30;59249;59.736;30.568;2023-07-13T09:26:13;22.30;49.31
71128;SHT30;59249;59.736;30.568;2023-07-13T09:28:45;22.55;49.05
71128;SHT30;59249;59.736;30.568;2023-07-13T09:31:24;22.21;48.84
71128;SHT30;59249;59.736;30.568;2023-07-13T09:33:54;21.92;48.81
71128;SHT30;59249;59.736;30.568;2023-07-13T09:36:31;21.86;49.92
71128;SHT30;59249;59.736;30.568;2023-07-13T09:39:10;22.09;49.60
71128;SHT30;59249;59.736;30.568;2023-07-13T09:41:48;22.05;49.49
71128;SHT30;59249;59.736;30.568;2023-07-13T09:44:29;21.92;49.92
71128;SHT30;59249;59.736;30.568;2023-07-13T09:46:59;21.94;50.19
71128;SHT30;59249;59.736;30.568;2023-07-13T09:49:35;22.27;50.53
71128;SHT30;59249;59.736;30.568;2023-07-13T09:52:11;22.33;49.76
71128;SHT30;59249;59.736;30.568;2023-07-13T09:54:48;22.50;49.71
71128;SHT30;59249;59.736;30.568;2023-07-13T09:57:23;22.46;50.09
71128;SHT30;59249;59.736;30.568;2023-07-13T10:00:23;22.50;50.00
71128;SHT30;59249;59.736;30.568;2023-07-13T10:03:04;22.77;49.63
71128;SHT30;59249;59.736;30.568;2023-07-13T10:05:42;22.77;49.56
71128;SHT30;59249;59.736;30.568;2023-07-13T10:08:23;22.85;48.94
71128;SHT30;59249;59.736;30.568;2023-07-13T10:10:57;22.76;49.25
71128;SHT30;59249;59.736;30.568;2023-07-13T10:13:31;22.59;49.38
71128;SHT30;59249;59.736;30.568;2023-07-13T10:16:02;22.76;49.31
71128;SHT30;59249;59.736;30.568;2023-07-13T10:18:43;22.90;49.68
71128;SHT30;59249;59.736;30.568;2023-07-13T10:21:17;23.10;49.57
71128;SHT30;59249;59.736;30.568;2023-07-13T10:24:14;23.24;48.38
71128;SHT30;59249;59.736;30.568;2023-07-13T10:26:54;23.15;48.20
71128;SHT30;59249;59.736;30.568;2023-07-13T10:29:27;23.23;48.33
71128;SHT30;59249;59.736;30.568;2023-07-13T10:32:00;23.22;48.04
71128;SHT30;59249;59.736;30.568;2023-07-13T10:34:29;23.18;48.14
71128;SHT30;59249;59.736;30.568;2023-07-13T10:36:59;23.29;48.12
71128;SHT30;59249;59.736;30.568;2023-07-13T10:39:30;23.41;48.00
71128;SHT30;59249;59.736;30.568;2023-07-13T10:42:05;23.39;48.16
71128;SHT30;59249;59.736;30.568;2023-07-13T10:44:35;23.08;48.69
71128;SHT30;59249;59.736;30.568;2023-07-13T10:47:08;23.02;48.66
71128;SHT30;59249;59.736;30.568;2023-07-13T10:49:44;23.16;48.89
71128;SHT30;59249;59.736;30.568;2023-07-13T10:52:43;23.19;48.49
71128;SHT30;59249;59.736;30.568;2023-07-13T10:55:40;23.18;48.39
71128;SHT30;59249;59.736;30.568;2023-07-13T10:58:19;23.15;48.57
71128;SHT30;59249;59.736;30.568;2023-07-13T11:01:02;23.22;48.46
71128;SHT30;59249;59.736;30.568;2023-07-13T11:03:34;23.29;47.98
71128;SHT30;59249;59.736;30.568;2023-07-13T11:06:13;23.62;48.38
71128;SHT30;59249;59.736;30.568;2023-07-13T11:08:53;23.64;47.42
71128;SHT30;59249;59.736;30.568;2023-07-13T11:11:37;23.43;46.83
71128;SHT30;59249;59.736;30.568;2023-07-13T11:14:30;23.29;47.04
71128;SHT30;59249;59.736;30.568;2023-07-13T11:17:38;23.57;47.59
71128;SHT30;59249;59.736;30.568;2023-07-13T11:20:33;23.60;47.89
71128;SHT30;59249;59.736;30.568;2023-07-13T11:23:28;24.00;47.78
71128;SHT30;59249;59.736;30.568;2023-07-13T11:25:58;24.11;47.41
71128;SHT30;59249;59.736;30.568;2023-07-13T11:28:32;24.43;47.05
71128;SHT30;59249;59.736;30.568;2023-07-13T11:31:12;24.55;46.72
71128;SHT30;59249;59.736;30.568;2023-07-13T11:33:57;24.53;46.35
71128;SHT30;59249;59.736;30.568;2023-07-13T11:36:39;24.58;47.04
71128;SHT30;59249;59.736;30.568;2023-07-13T11:39:21;24.46;46.79
71128;SHT30;59249;59.736;30.568;2023-07-13T11:41:54;24.57;46.34
71128;SHT30;59249;59.736;30.568;2023-07-13T11:44:29;24.28;45.87
71128;SHT30;59249;59.736;30.568;2023-07-13T11:47:00;24.11;46.17
71128;SHT30;59249;59.736;30.568;2023-07-13T11:49:44;23.82;46.56
71128;SHT30;59249;59.736;30.568;2023-07-13T11:52:18;24.15;46.61
71128;SHT30;59249;59.736;30.568;2023-07-13T11:54:50;24.06;46.42
71128;SHT30;59249;59.736;30.568;2023-07-13T11:57:29;24.10;46.58
71128;SHT30;59249;59.736;30.568;2023-07-13T12:00:11;24.08;46.45
71128;SHT30;59249;59.736;30.568;2023-07-13T12:02:48;24.00;46.59
71128;SHT30;59249;59.736;30.568;2023-07-13T12:05:20;24.11;46.61
71128;SHT30;59249;59.736;30.568;2023-07-13T12:07:51;24.29;46.64
71128;SHT30;59249;59.736;30.568;2023-07-13T12:10:24;24.20;46.45
71128;SHT30;59249;59.736;30.568;2023-07-13T12:12:56;24.16;46.56
71128;SHT30;59249;59.736;30.568;2023-07-13T12:15:37;24.21;46.76
71128;SHT30;59249;59.736;30.568;2023-07-13T12:18:13;23.86;47.17
71128;SHT30;59249;59.736;30.568;2023-07-13T12:20:46;23.94;47.10
71128;SHT30;59249;59.736;30.568;2023-07-13T12:23:23;23.83;47.23
71128;SHT30;59249;59.736;30.568;2023-07-13T12:25:53;23.69;47.57
71128;SHT30;59249;59.736;30.568;2023-07-13T12:28:34;23.62;47.79
71128;SHT30;59249;59.736;30.568;2023-07-13T12:31:25;23.57;48.35
71128;SHT30;59249;59.736;30.568;2023-07-13T12:34:00;23.45;48.26
71128;SHT30;59249;59.736;30.568;2023-07-13T12:36:34;23.56;48.26
71128;SHT30;59249;59.736;30.568;2023-07-13T12:39:17;23.72;48.25
71128;SHT30;59249;59.736;30.568;2023-07-13T12:41:48;23.71;48.30
71128;SHT30;59249;59.736;30.568;2023-07-13T12:44:27;23.69;48.46
71128;SHT30;59249;59.736;30.568;2023-07-13T12:47:12;23.84;48.81
71128;SHT30;59249;59.736;30.568;2023-07-13T12:49:48;24.08;48.66
71128;SHT30;59249;59.736;30.568;2023-07-13T12:52:22;24.27;48.52
71128;SHT30;59249;59.736;30.568;2023-07-13T12:54:57;24.26;48.67
71128;SHT30;59249;59.736;30.568;2023-07-13T12:57:40;24.34;48.57
71128;SHT30;59249;59.736;30.568;2023-07-13T13:00:23;24.15;48.50
71128;SHT30;59249;59.736;30.568;2023-07-13T13:02:58;23.84;48.56
71128;SHT30;59249;59.736;30.568;2023-07-13T13:05:59;23.97;48.40
71128;SHT30;59249;59.736;30.568;2023-07-13T13:08:35;23.81;48.81
71128;SHT30;59249;59.736;30.568;2023-07-13T13:11:05;23.80;49.50
71128;SHT30;59249;59.736;30.568;2023-07-13T13:13:34;23.73;49.12
71128;SHT30;59249;59.736;30.568;2023-07-13T13:16:19;23.92;49.12
71128;SHT30;59249;59.736;30.568;2023-07-13T13:18:52;24.10;48.89
71128;SHT30;59249;59.736;30.568;2023-07-13T13:21:25;23.82;48.92
71128;SHT30;59249;59.736;30.568;2023-07-13T13:23:54;24.09;48.58
71128;SHT30;59249;59.736;30.568;2023-07-13T13:26:23;24.17;48.43
71128;SHT30;59249;59.736;30.568;2023-07-13T13:28:51;23.96;49.13
71128;SHT30;59249;59.736;30.568;2023-07-13T13:31:21;24.00;49.12
71128;SHT30;59249;59.736;30.568;2023-07-13T13:33:51;24.17;48.98
71128;SHT30;59249;59.736;30.568;2023-07-13T13:36:23;24.15;48.57
71128;SHT30;59249;59.736;30.568;2023-07-13T13:38:52;24.14;48.76
71128;SHT30;59249;59.736;30.568;2023-07-13T13:41:21;23.79;48.69
71128;SHT30;59249;59.736;30.568;2023-07-13T13:43:50;23.46;49.41
71128;SHT30;59249;59.736;30.568;2023-07-13T13:46:24;23.63;49.46
71128;SHT30;59249;59.736;30.568;2023-07-13T13:48:57;23.60;49.17
71128;SHT30;59249;59.736;30.568;2023-07-13T13:51:26;23.91;49.05
71128;SHT30;59249;59.736;30.568;2023-07-13T13:53:55;23.67;48.61
71128;SHT30;59249;59.736;30.568;2023-07-13T13:56:24;23.75;49.00
71128;SHT30;59249;59.736;30.568;2023-07-13T13:58:53;23.77;49.01
71128;SHT30;59249;59.736;30.568;2023-07-13T14:01:23;23.73;48.97
71128;SHT30;59249;59.736;30.568;2023-07-13T14:03:52;23.82;48.76
71128;SHT30;59249;59.736;30.568;2023-07-13T14:06:22;24.29;48.60
71128;SHT30;59249;59.736;30.568;2023-07-13T14:08:51;23.99;48.14
71128;SHT30;59249;59.736;30.568;2023-07-13T14:11:21;24.10;48.66
71128;SHT30;59249;59.736;30.568;2023-07-13T14:13:53;24.03;48.53
71128;SHT30;59249;59.736;30.568;2023-07-13T14:16:27;24.17;48.73
71128;SHT30;59249;59.736;30.568;2023-07-13T14:18:59;24.24;48.35
71128;SHT30;59249;59.736;30.568;2023-07-13T14:21:29;23.94;48.24
71128;SHT30;59249;59.736;30.568;2023-07-13T14:23:58;24.19;48.39
71128;SHT30;59249;59.736;30.568;2023-07-13T14:26:37;24.18;47.99
71128;SHT30;59249;59.736;30.568;2023-07-13T14:29:13;23.88;48.63
71128;SHT30;59249;59.736;30.568;2023-07-13T14:31:46;24.37;48.07
71128;SHT30;59249;59.736;30.568;2023-07-13T14:34:15;24.32;48.42
71128;SHT30;59249;59.736;30.568;2023-07-13T14:36:48;24.43;48.26
71128;SHT30;59249;59.736;30.568;2023-07-13T14:39:20;24.45;48.34
71128;SHT30;59249;59.736;30.568;2023-07-13T14:41:51;24.42;48.58
71128;SHT30;59249;59.736;30.568;2023-07-13T14:44:24;24.69;47.66
71128;SHT30;59249;59.736;30.568;2023-07-13T14:46:53;24.52;48.00
71128;SHT30;59249;59.736;30.568;2023-07-13T14:49:30;24.60;48.07
71128;SHT30;59249;59.736;30.568;2023-07-13T14:52:12;24.73;48.05
71128;SHT30;59249;59.736;30.568;2023-07-13T14:54:47;24.31;48.32
71128;SHT30;59249;59.736;30.568;2023-07-13T14:57:19;24.61;47.77
71128;SHT30;59249;59.736;30.568;2023-07-13T14:59:49;24.51;47.97
71128;SHT30;59249;59.736;30.568;2023-07-13T15:02:27;24.56;48.28
71128;SHT30;59249;59.736;30.568;2023-07-13T15:04:57;24.44;48.50
71128;SHT30;59249;59.736;30.568;2023-07-13T15:07:27;24.59;48.50
71128;SHT30;59249;59.736;30.568;2023-07-13T15:09:56;24.78;48.28
71128;SHT30;59249;59.736;30.568;2023-07-13T15:12:25;24.47;47.54
71128;SHT30;59249;59.736;30.568;2023-07-13T15:14:53;24.55;48.04
71128;SHT30;59249;59.736;30.568;2023-07-13T15:17:37;24.64;46.68
71128;SHT30;59249;59.736;30.568;2023-07-13T15:20:18;24.69;46.90
71128;SHT30;59249;59.736;30.568;2023-07-13T15:22:52;25.04;46.61
71128;SHT30;59249;59.736;30.568;2023-07-13T15:25:23;25.36;46.34
71128;SHT30;59249;59.736;30.568;2023-07-13T15:27:55;25.69;45.53
71128;SHT30;59249;59.736;30.568;2023-07-13T15:30:28;25.70;45.44
71128;SHT30;59249;59.736;30.568;2023-07-13T15:33:08;25.74;45.23
71128;SHT30;59249;59.736;30.568;2023-07-13T15:35:38;25.93;45.21
71128;SHT30;59249;59.736;30.568;2023-07-13T15:38:16;25.81;44.73
71128;SHT30;59249;59.736;30.568;2023-07-13T15:40:46;26.36;43.89
71128;SHT30;59249;59.736;30.568;2023-07-13T15:43:16;26.38;43.68
71128;SHT30;59249;59.736;30.568;2023-07-13T15:45:46;26.14;43.46
71128;SHT30;59249;59.736;30.568;2023-07-13T15:48:20;26.48;43.49
71128;SHT30;59249;59.736;30.568;2023-07-13T15:51:00;26.62;42.91